Home > Products > Valid Products > TAF

000
FTUS46 KMFR 241157 CCA
TAFLMT
TAF COR
KLMT 241157Z 2412/2512 VRB03KT P6SM OVC150
     FM242100 21004KT P6SM SCT050 OVC070
     FM250000 24004KT P6SM VCSH SCT025 OVC035
     FM250300 25004KT P6SM VCSH SCT010 BKN020 OVC035=



000
FTUS46 KMFR 241148
TAFLMT
TAF
KLMT 241148Z 2412/2512 VRB03KT P6SM OVC150
     FM242100 23005KT P6SM SCT050 OVC070
     FM250000 26004KT P6SM VCSH SCT020 OVC035=



000
FTUS46 KMFR 241148
TAFRBG
TAF
KRBG 241148Z 2412/2512 00000KT 1/4SM FG VV002
     FM241600 VRB03KT 3SM BR BKN005 BKN080 OVC150
     FM241800 VRB03KT P6SM BKN006 BKN060 OVC120
     FM242000 18007KT P6SM BKN050 OVC100
     FM242100 18007KT P6SM -RA SCT035 OVC050
     FM250100 00000KT 5SM -RADZ BR SCT015 OVC020
     FM250600 00000KT 3SM BR SCT005 OVC010=



000
FTUS46 KMFR 241148
TAFOTH
TAF
KOTH 241148Z 2412/2512 14003KT P6SM FEW025 OVC150
     FM241700 16008KT P6SM FEW020 OVC050
     FM242000 18011KT 5SM -RA SCT020 OVC040
     FM250000 19012KT 5SM -RA BKN020 OVC035
     FM250300 20007KT 4SM -RADZ SCT010 OVC015
     FM250600 20006KT 4SM -RADZ BKN010 OVC015=



000
FTUS46 KMFR 241148
TAFMFR
TAF
KMFR 241148Z 2412/2512 00000KT P6SM OVC014
     FM241300 00000KT 5SM BR SCT005 OVC012
     FM241600 VRB03KT P6SM SCT008 OVC080
     FM242100 VRB03KT P6SM -RA OVC040
     FM250300 00000KT 5SM -SHRA BR BKN020 OVC040
     FM250700 00000KT 4SM BR FEW005 OVC010=



000
FTUS46 KMFR 241026 AAC
TAFRBG
TAF AMD
KRBG 241026Z 2410/2506 00000KT 1SM BR BKN002
     FM241200 00000KT 1/2SM FG OVC002
     FM241600 VRB03KT 3SM BR SCT002 OVC050
     FM241700 VRB03KT P6SM BKN050 OVC100
     FM242000 18007KT P6SM -RA SCT020 OVC040
     FM250300 00000KT 5SM -RADZ BR OVC020=



000
FTUS46 KMFR 241025 AAC
TAFMFR
TAF AMD
KMFR 241025Z 2410/2506 00000KT P6SM OVC011
     FM241200 00000KT 5SM BR OVC005
     FM241600 VRB03KT P6SM SCT008 OVC050
     FM242100 VRB03KT P6SM -RA OVC040
     FM250300 00000KT 5SM -SHRA BR BKN020 OVC040=



000
FTUS46 KMFR 241025 AAA
TAFLMT
TAF AMD
KLMT 241025Z 2410/2506 VRB03KT P6SM SCT200
     FM241200 00000KT 3SM BR SCT002 SCT200
     FM241500 00000KT P6SM SCT200
     FM242100 23005KT P6SM OVC050
     FM250000 26004KT P6SM VCSH SCT020 OVC035=



000
FTUS46 KMFR 240915 AAB
TAFRBG
TAF AMD
KRBG 240915Z 2409/2506 00000KT 1/4SM FG VV002
     FM241600 VRB03KT 3SM BR SCT002 OVC050
     FM241700 VRB03KT P6SM BKN050 OVC100
     FM242000 18007KT P6SM -RA SCT020 OVC040
     FM250300 00000KT 5SM -RADZ BR OVC020=



000
FTUS46 KMFR 240840 AAA
TAFRBG
TAF AMD
KRBG 240840Z 2409/2506 VRB03KT 1SM BR SCT002 BKN009
     FM241100 00000KT 1/4SM FG VV002
     FM241600 VRB03KT 3SM BR SCT002 OVC050
     FM241700 VRB03KT P6SM BKN050 OVC100
     FM242000 18007KT P6SM -RA SCT020 OVC040
     FM250300 00000KT 5SM -RADZ BR OVC020=



000
FTUS46 KMFR 240540
TAFLMT
TAF
KLMT 240540Z 2406/2506 VRB03KT P6SM SCT200
     FM241000 00000KT 3SM BR SCT002 SCT200
     FM241500 00000KT P6SM SCT200
     FM242100 23005KT P6SM OVC050
     FM250000 26004KT P6SM VCSH SCT020 OVC035=



000
FTUS46 KMFR 240540
TAFOTH
TAF
KOTH 240540Z 2406/2506 14003KT P6SM SCT025
     FM241700 16008KT P6SM SCT020 OVC050
     FM242000 18011KT 5SM -RA SCT020 OVC040
     FM250300 20007KT 4SM -RADZ OVC020=



000
FTUS46 KMFR 240540
TAFRBG
TAF
KRBG 240540Z 2406/2506 VRB03KT 6SM BR SCT250
     FM240900 00000KT 1/4SM FG VV002
     FM241600 VRB03KT 3SM BR SCT002 OVC050
     FM241700 VRB03KT P6SM BKN050 OVC100
     FM242000 18007KT P6SM -RA SCT020 OVC040
     FM250300 00000KT 5SM -RADZ BR OVC020=



000
FTUS46 KMFR 240540
TAFMFR
TAF
KMFR 240540Z 2406/2506 00000KT P6SM OVC011
     FM241000 00000KT 5SM BR OVC005
     FM241600 VRB03KT P6SM SCT008 OVC050
     FM242100 VRB03KT P6SM -RA OVC040
     FM250300 00000KT 5SM -SHRA BR BKN020 OVC040=



000
FTUS46 KMFR 240209 AAA
TAFMFR
TAF AMD
KMFR 240209Z 2402/2424 00000KT P6SM BKN015 BKN250
     FM241000 00000KT 3SM BR OVC005
     FM241600 VRB03KT P6SM SCT008 OVC050
     FM242100 VRB03KT P6SM OVC040=



000
FTUS46 KMFR 232320
TAFOTH
TAF
KOTH 232320Z 2400/2424 21006KT P6SM SCT025 BKN050
     FM240300 VRB03KT P6SM SCT025 BKN050
     FM240800 15005KT P6SM OVC020
     FM241700 16008KT P6SM SCT020 OVC050
     FM242000 16012G20KT 5SM -RA SCT020 OVC040=



000
FTUS46 KMFR 232320
TAFMFR
TAF
KMFR 232320Z 2400/2424 31003KT P6SM SCT015 BKN250
     FM241000 00000KT 3SM BR OVC005
     FM241600 VRB03KT P6SM SCT008 OVC050
     FM242100 VRB03KT P6SM OVC040=



000
FTUS46 KMFR 232320
TAFLMT
TAF
KLMT 232320Z 2400/2424 VRB03KT P6SM SCT050 BKN200
     FM242100 21012KT P6SM OVC060=



000
FTUS46 KMFR 232320
TAFRBG
TAF
KRBG 232320Z 2400/2424 VRB03KT P6SM SCT050 SCT250
     FM240800 00000KT 1SM BR OVC005
     FM241000 00000KT 1/4SM FG VV002
     FM241700 VRB03KT P6SM SCT002 OVC050
     FM242000 18010KT P6SM OVC040=



000
FTUS46 KMFR 231959 AAA
TAFMFR
TAF AMD
KMFR 231959Z 2320/2418 31003KT P6SM OVC009
     FM232200 31003KT P6SM FEW009 SCT050 BKN200
     FM241000 00000KT 3SM BR BKN005=



000
FTUS46 KMFR 231739
TAFOTH
TAF
KOTH 231739Z 2318/2418 16007KT P6SM BKN050 BKN250
     FM232000 20010KT P6SM SCT050 BKN250
     FM240300 15004KT P6SM SCT030 BKN100 BKN250=



000
FTUS46 KMFR 231739
TAFLMT
TAF
KLMT 231739Z 2318/2418 VRB03KT P6SM SCT050 BKN200=



000
FTUS46 KMFR 231739
TAFRBG
TAF
KRBG 231739Z 2318/2418 00000KT 3SM BR SCT002 BKN050
     FM231900 18003KT P6SM SCT050 BKN100 BKN250
     FM240800 00000KT 1SM BR BKN005 BKN200
     FM241000 00000KT 1/4SM FG VV002=



000
FTUS46 KMFR 231739
TAFMFR
TAF
KMFR 231739Z 2318/2418 00000KT P6SM OVC007
     FM231900 VRB03KT P6SM FEW007 SCT050 BKN200
     FM241000 00000KT 3SM BR BKN005=



000
FTUS46 KMFR 231310 AAA
TAFLMT
TAF AMD
KLMT 231310Z 2313/2412 VRB03KT P6SM SCT015 SCT200
     FM231800 VRB03KT P6SM FEW015 SCT200
     FM232300 28005KT P6SM SCT100 BKN200=



000
FTUS46 KMFR 231256 AAA
TAFMFR
TAF AMD
KMFR 231256Z 2313/2412 00000KT P6SM BKN006 OVC012
     FM231400 00000KT 3SM BR BKN004 BKN010
     FM231900 VRB03KT P6SM FEW005 SCT015 BKN200
     FM232000 VRB03KT P6SM SCT040 SCT120 BKN250
     FM241000 00000KT 6SM BR FEW007 BKN100 BKN250=



000
FTUS46 KMFR 231144
TAFRBG
TAF
KRBG 231144Z 2312/2412 00000KT 1/2SM FG OVC002
     FM231600 VRB02KT 3SM BR OVC003
     FM231800 VRB02KT P6SM OVC007
     FM231900 18003KT P6SM FEW040 BKN100 BKN250
     FM240800 00000KT 1SM BR BKN005 BKN100 BKN200=



000
FTUS46 KMFR 231144
TAFLMT
TAF
KLMT 231144Z 2312/2412 VRB03KT P6SM SCT015 SCT200
     FM231300 VRB03KT P6SM BKN015 BKN200
     FM231800 VRB03KT P6SM FEW015 SCT200
     FM232300 28005KT P6SM SCT100 BKN200=



000
FTUS46 KMFR 231144
TAFOTH
TAF
KOTH 231144Z 2312/2412 16006KT P6SM SCT020 BKN250
     FM231700 19010KT P6SM SCT025 SCT100 BKN250
     FM240300 15004KT P6SM SCT030 BKN100 BKN250=



000
FTUS46 KMFR 231144
TAFMFR
TAF
KMFR 231144Z 2312/2412 00000KT P6SM OVC015
     FM231400 00000KT 3SM BR BKN004 BKN015
     FM231900 VRB03KT P6SM FEW005 SCT015 BKN200
     FM232000 VRB03KT P6SM SCT040 SCT120 BKN250
     FM241000 00000KT 6SM BR FEW007 BKN100 BKN250=



000
FTUS46 KMFR 231008 AAA
TAFRBG
TAF AMD
KRBG 231008Z 2310/2406 00000KT 1SM BR OVC002
     FM231600 VRB02KT P6SM BKN007
     FM231800 18003KT P6SM BKN050 BKN100=



000
FTUS46 KMFR 230917 AAA
TAFMFR
TAF AMD
KMFR 230917Z 2309/2406 00000KT P6SM OVC012
     FM231300 00000KT 3SM BR BKN004 BKN010
     FM231700 VRB03KT P6SM FEW005 SCT015 BKN030
     FM232000 VRB03KT P6SM SCT040=



000
FTUS46 KMFR 230535
TAFMFR
TAF
KMFR 230535Z 2306/2406 VRB03KT P6SM SCT030 BKN050
     FM231000 00000KT 3SM BR OVC004
     FM231700 VRB03KT P6SM SCT004 SCT015 BKN030
     FM232000 VRB03KT P6SM SCT040=



000
FTUS46 KMFR 230535
TAFOTH
TAF
KOTH 230535Z 2306/2406 15006KT P6SM SCT025 BKN250
     FM231000 16006KT P6SM SCT012 BKN020
     FM231700 17010KT P6SM SCT025 BKN250
     FM240300 14003KT P6SM BKN120 BKN250=



000
FTUS46 KMFR 230535
TAFLMT
TAF
KLMT 230535Z 2306/2406 17004KT P6SM SCT025 SCT250
     FM231000 VRB03KT 3SM BR SCT007 OVC015
     FM231800 VRB03KT P6SM SCT015=



000
FTUS46 KMFR 230535
TAFRBG
TAF
KRBG 230535Z 2306/2406 VRB03KT P6SM SCT035
     FM230900 00000KT 4SM BR SCT007 SCT250
     FM231200 00000KT 1SM BR OVC002
     FM231600 VRB02KT P6SM BKN007
     FM231800 18003KT P6SM BKN050 BKN100=



000
FTUS46 KMFR 230040 AAA
TAFLMT
TAF AMD
KLMT 230040Z 2301/2324 25011KT P6SM -SHRASN SCT015 BKN035 OVC060
      TEMPO 2301/2302 2SM -SHSN BKN010
     FM230400 27008KT P6SM VCSH SCT050 BKN150
     FM231000 VRB03KT 3SM BR SCT008 OVC015
     FM231800 VRB03KT P6SM SCT015=



000
FTUS46 KMFR 222343
TAFOTH
TAF
KOTH 222343Z 2300/2324 29008KT P6SM VCSH SCT025 BKN040
     FM230600 15005KT P6SM VCSH BKN040
     FM231000 16008KT 4SM BR BKN012
     FM231700 17010KT P6SM SCT025=



000
FTUS46 KMFR 222343
TAFMFR
TAF
KMFR 222343Z 2300/2324 30010KT P6SM -SHRA SCT025 BKN045
     FM230300 VRB02KT P6SM VCSH SCT030 BKN040
     FM231000 VRB02KT 3SM BR SCT008 OVC015
     FM231700 VRB03KT P6SM SCT015 BKN030
     FM232000 VRB03KT P6SM SCT040=



000
FTUS46 KMFR 222343
TAFLMT
TAF
KLMT 222343Z 2300/2324 29017G25KT P6SM SCT015 BKN035 BKN070
      TEMPO 2300/2304 -SHRA BKN025
     FM230400 27008KT P6SM VCSH SCT050 BKN150
     FM231000 VRB03KT 3SM BR SCT008 OVC015
     FM231800 VRB03KT P6SM SCT015=



000
FTUS46 KMFR 222343
TAFRBG
TAF
KRBG 222343Z 2300/2324 26008KT P6SM -SHRA SCT035 BKN045 OVC110
     FM230300 VRB03KT P6SM VCSH SCT025 OVC040
     FM230600 00000KT P6SM BKN015 BKN040
     FM231600 VRB02KT P6SM SCT040=



000
FTUS46 KMFR 221738
TAFMFR
TAF
KMFR 221738Z 2218/2318 34006KT 3SM SHRA BKN025 OVC040
     FM222000 30010G15KT P6SM -SHRA SCT025 BKN035 OVC050
     FM230300 VRB02KT P6SM SCT030 BKN040
     FM231000 VRB02KT 3SM BR SCT008 OVC015=



000
FTUS46 KMFR 221738
TAFRBG
TAF
KRBG 221738Z 2218/2318 18006KT 3SM SHRA BR BKN025 OVC040
     FM221900 26008KT P6SM -SHRA SCT025 BKN035 OVC050
     FM230300 VRB03KT P6SM VCSH SCT025 OVC040
     FM230600 00000KT P6SM BKN012 BKN040
     FM230900 00000KT 1/2SM FG OVC002=



000
FTUS46 KMFR 221738
TAFLMT
TAF
KLMT 221738Z 2218/2318 27020G30KT P6SM -SHRA BKN035 OVC050
      TEMPO 2218/2220 3SM SHRA BKN015
     FM222300 29017G25KT P6SM -SHRA BKN035 BKN070
     FM230300 27008KT P6SM SCT050 BKN150
     FM231000 VRB03KT 3SM BR SCT008 OVC015=



000
FTUS46 KMFR 221738
TAFOTH
TAF
KOTH 221738Z 2218/2318 27010G20KT P6SM -SHRA SCT025 BKN040
     FM230000 27008KT P6SM VCSH SCT025 BKN040
     FM230600 15005KT P6SM SCT040
     FM231000 15004KT 1SM BR OVC005=



000
FTUS46 KMFR 221307 AAA
TAFLMT
TAF AMD
KLMT 221307Z 2213/2312 26014KT P6SM -SHRA BKN030 OVC035
     FM221700 28017G25KT P6SM -SHRA BKN035 BKN070
     FM222300 29017G25KT P6SM -SHRA BKN035 BKN070
     FM230300 27008KT P6SM SCT050 BKN150=



000
FTUS46 KMFR 221152 CCA
TAFOTH
TAF COR
KOTH 221152Z 2212/2312 26010KT P6SM VCSH FEW015 SCT035 OVC050
     FM221400 25010G18KT P6SM -SHRA FEW015 SCT030 BKN040
     FM222000 27012G20KT P6SM -SHRA BKN025 OVC040
     FM230300 26005KT P6SM VCSH SCT025 BKN040
     FM230600 15005KT P6SM SCT040=



000
FTUS46 KMFR 221145
TAFMFR
TAF

FM231000
 VRB02KT P6SM OVC015=



000
FTUS46 KMFR 221145
TAFLMT
TAF
KLMT 221145Z 2212/2312 22015G23KT P6SM -SHRA OVC018
     FM221700 28017G25KT P6SM -SHRA BKN030 BKN070
     FM222300 29017G25KT P6SM -SHRA BKN035 BKN070
     FM230300 27008KT P6SM SCT050 BKN150=



000
FTUS46 KMFR 221145
TAFMFR
TAF
KMFR 221145Z 2212/2312 VRB04KT P6SM -SHRA FEW015 SCT035 BKN060
      TEMPO 2212/2216 5SM -SHRA BR SCT005 BKN015 BKN040
     FM221800 30010G15KT P6SM -SHRA SCT030 BKN035 OVC050
     FM230300 VRB02KT P6SM SCT030 BKN040=



000
FTUS46 KMFR 221145
TAFOTH
TAF
KOTH 221145Z 2212/2312 26010G18KT P6SM VCSH SCT020 SCT040 OVC060
     FM221400 25017G25KT P6SM -SHRA BKN015 BKN035
     FM222000 27012G20KT P6SM -SHRA BKN025 OVC050
     FM230300 26005KT P6SM VCSH SCT025 BKN040
     FM230600 15005KT P6SM SCT040=



000
FTUS46 KMFR 221145
TAFRBG
TAF
KRBG 221145Z 2212/2312 VRB03KT 6SM -SHRA BR SCT008 BKN035 OVC060
      TEMPO 2212/2215 2SM -SHRA BR SCT005 BKN030 OVC050
     FM221700 24006KT P6SM -SHRA SCT025 BKN035 OVC050
     FM230300 VRB03KT P6SM VCSH SCT025 OVC040
     FM230600 00000KT P6SM BKN012 BKN040
     FM230900 00000KT 3SM BR OVC008=



000
FTUS46 KMFR 221110 AAB
TAFMFR
TAF AMD
KMFR 221110Z 2211/2306 VRB04KT P6SM -SHRA FEW007 SCT015 BKN050
      TEMPO 2212/2216 5SM -SHRA BR SCT005 BKN015 BKN040
     FM221700 30008G15KT P6SM -SHRA BKN035 OVC050
     FM230200 VRB03KT P6SM SCT035 BKN050=



000
FTUS46 KMFR 221106 AAA
TAFRBG
TAF AMD
KRBG 221106Z 2211/2306 VRB03KT 3SM -SHRA BR SCT008 BKN035 OVC050
      TEMPO 2211/2215 2SM -SHRA BR BKN008 BKN035 OVC050
     FM221700 22006KT P6SM -SHRA SCT025 BKN035 OVC050
     FM230300 VRB03KT P6SM VCSH SCT025 OVC040=



000
FTUS46 KMFR 221058 AAA
TAFOTH
TAF AMD
KOTH 221058Z 2211/2306 26010G18KT P6SM VCSH SCT020 SCT040 OVC060
     FM221300 25017G25KT P6SM -SHRA BKN015 BKN035
     FM222000 27012G20KT P6SM -SHRA BKN025 OVC050
     FM230200 23007KT P6SM VCSH SCT025 BKN050=



000
FTUS46 KMFR 220711 AAA
TAFMFR
TAF AMD
KMFR 220711Z 2207/2306 VRB04KT 5SM -RA BR FEW005 BKN020 OVC035
     FM221200 VRB04KT 5SM -RA BR SCT005 BKN015 OVC040
     FM221700 30008G15KT P6SM -SHRA BKN035 OVC050
     FM230200 VRB03KT P6SM SCT035 BKN050=



000
FTUS46 KMFR 220550
TAFRBG
TAF
KRBG 220550Z 2206/2306 18008KT 4SM -RA BR SCT012 BKN040 OVC060
     FM220900 22005KT 5SM -SHRA BR SCT005 BKN012 OVC040
     FM221700 18007KT P6SM -SHRA BKN025 OVC050
     FM230300 VRB03KT P6SM VCSH SCT025 OVC050=



000
FTUS46 KMFR 220550
TAFOTH
TAF
KOTH 220550Z 2206/2306 27017G25KT 5SM -RA BR SCT005 BKN010 OVC020
     FM220900 26012G20KT 5SM -SHRA BR SCT005 BKN015 OVC050
     FM221500 25017G25KT P6SM -SHRA BKN015 OVC030
     FM222000 27012G20KT P6SM -SHRA BKN025 OVC050
     FM230200 23007KT P6SM VCSH SCT025 BKN050=



000
FTUS46 KMFR 220550
TAFLMT
TAF
KLMT 220550Z 2206/2306 18010G20KT P6SM -RA SCT020 BKN030 OVC050
     FM220900 22012KT P6SM -SHRA BKN015 BKN030 OVC040
     FM221500 28010G20KT P6SM -SHRA BKN030 BKN100
     FM230300 27008KT P6SM SCT030 BKN150=



000
FTUS46 KMFR 220550
TAFMFR
TAF
KMFR 220550Z 2206/2306 VRB04KT 5SM -RA BR FEW008 BKN040 OVC060
     FM221200 VRB04KT 5SM -RA BR SCT005 BKN015 OVC040
     FM221700 30008G15KT P6SM -SHRA BKN035 OVC050
     FM230200 VRB03KT P6SM SCT035 BKN050=



000
FTUS46 KMFR 220309 AAA
TAFOTH
TAF AMD
KOTH 220309Z 2203/2224 21020G27KT 2SM -RA BR BKN010 OVC020
     FM220900 26015G27KT P6SM -SHRA BKN015 OVC050
     FM222000 27010G18KT P6SM -SHRA BKN025 OVC050=



000
FTUS46 KMFR 212349
TAFLMT
TAF
KLMT 212349Z 2200/2224 18010G20KT P6SM -RA SCT020 BKN030 OVC050
     FM220900 22012KT P6SM -SHRA BKN015 BKN030 OVC040
     FM221500 28010G20KT P6SM -SHRA BKN030 BKN100=



000
FTUS46 KMFR 212349
TAFRBG
TAF
KRBG 212349Z 2200/2224 18010KT P6SM -RA SCT012 BKN035
     FM220900 30004KT 5SM -SHRA BR BKN005 OVC035
     FM221900 25007KT P6SM -SHRA SCT012 BKN050=



000
FTUS46 KMFR 212349
TAFMFR
TAF
KMFR 212349Z 2200/2224 36008KT P6SM -RA BKN040 OVC070
     FM220600 VRB04KT P6SM -RA SCT020 OVC040
     FM221000 VRB04KT 5SM -RA BR SCT005 BKN010 OVC030
     FM221900 30008G15KT P6SM -SHRA SCT015 BKN035=



000
FTUS46 KMFR 212349
TAFOTH
TAF
KOTH 212349Z 2200/2224 18022G30KT 5SM RA BKN025 OVC040
      WS020/18060KT
     FM220200 21020G27KT 4SM RA BKN010 OVC020
     FM220900 26015G27KT P6SM -SHRA BKN015 OVC050
     FM222000 27010G18KT P6SM -SHRA BKN025 OVC050=



000
FTUS46 KMFR 211738
TAFMFR
TAF
KMFR 211738Z 2118/2218 VRB04KT 2SM -RA BR BKN002 BKN012 OVC020
     FM211900 15005KT 3SM -RA BR BKN012 OVC050
     FM212100 15006KT P6SM -RA BKN025 OVC040
     FM220000 18008KT P6SM -RA BKN020 OVC040
     FM220600 VRB04KT P6SM -RA BKN010 BKN020 OVC040
     FM220900 VRB04KT 5SM -RA BR SCT005 BKN010 OVC030=



000
FTUS46 KMFR 211738
TAFLMT
TAF
KLMT 211738Z 2118/2218 16006KT P6SM BCFG BKN050 OVC100
     FM211900 17010KT P6SM SCT030 OVC050
     FM212200 18014G25KT P6SM -RA SCT030 OVC040
     FM220000 18014G25KT P6SM -RA BKN020 BKN030 OVC040
     FM220900 22012KT P6SM -SHRA BKN015 BKN030 OVC040=



000
FTUS46 KMFR 211738
TAFRBG
TAF
KRBG 211738Z 2118/2218 18004KT 6SM -RA BKN035 OVC050
     FM212000 18010KT P6SM -RA BKN010 OVC040 WS020/18045KT
     FM220000 18010KT 5SM RA SCT005 BKN012 OVC035
     FM220900 18004KT 5SM -RA BR BKN005 OVC035=



000
FTUS46 KMFR 211738
TAFOTH
TAF
KOTH 211738Z 2118/2218 17006KT P6SM -RA SCT035 OVC060 WS020/19040KT
     FM211900 16012G20KT P6SM -RA BKN025 OVC060 WS020/19050KT
     FM212100 18022G30KT 5SM RA BKN020 OVC040 WS020/18060KT
     FM220100 21020G27KT 4SM RA BKN010 OVC020
     FM221000 26020G27KT P6SM -SHRA BKN025 OVC050=



000
FTUS46 KMFR 211703 AAC
TAFMFR
TAF AMD
KMFR 211703Z 2117/2212 VRB04KT 2SM -RA BR BKN002 BKN012 OVC020
     FM211900 15005KT 3SM -RA BR BKN012 OVC050
     FM212100 15006KT P6SM -RA BKN025 OVC040
     FM220000 18008KT P6SM -RA BKN020 OVC040
     FM220600 VRB04KT P6SM -RA BKN010 BKN020 OVC040
     FM220900 VRB04KT 5SM -RA BR SCT005 BKN010 OVC030=



000
FTUS46 KMFR 211600 AAB
TAFLMT
TAF AMD
KLMT 211600Z 2116/2212 13005KT P6SM BKN030 OVC050
      TEMPO 2116/2118 1SM BR VV002
     FM211800 17010KT P6SM SCT030 OVC050
     FM212200 18014G25KT P6SM -RA SCT030 OVC040
     FM220000 18014G25KT P6SM -RA BKN020 BKN030 OVC040
     FM220900 22012KT P6SM -SHRA BKN015 BKN030 OVC040=



000
FTUS46 KMFR 211600 AAB
TAFLMT
TAF AMD
KLMT 211600Z 2116/2212 13005KT P6SM BKN030 OVC050
      TEMPO 2116/2118 1SM BR VV002
     FM211800 17010KT P6SM SCT030 OVC050
     FM212200 18014G25KT P6SM -RA SCT030 OVC040
     FM220000 18014G25KT P6SM -RA BKN020 BKN030 OVC040
     FM220900 22012KT P6SM -SHRA BKN015 BKN030 OVC040=



000
FTUS46 KMFR 211555 AAA
TAFRBG
TAF AMD
KRBG 211555Z 2116/2212 00000KT 4SM BR SCT002 OVC045
     FM212000 18010KT P6SM -RA BKN010 OVC040 WS020/18045KT
     FM220000 18010KT 5SM RA SCT005 BKN012 OVC035
     FM220900 18004KT 5SM -RA BR BKN005 OVC035=



000
FTUS46 KMFR 211555 AAA
TAFRBG
TAF AMD
KRBG 211555Z 2116/2212 00000KT 4SM BR SCT002 OVC045
     FM212000 18010KT P6SM -RA BKN010 OVC040 WS020/18045KT
     FM220000 18010KT 5SM RA SCT005 BKN012 OVC035
     FM220900 18004KT 5SM -RA BR BKN005 OVC035=



    US Dept of Commerce
    National Oceanic and Atmospheric Administration
    National Weather Service
    1325 East West Highway
    Silver Spring, MD 20910
    Page Author: NWS Internet Services Team
Disclaimer
Information Quality
Credits
Glossary
Privacy Policy
Freedom of Information Act (FOIA)
About Us
Career Opportunities